Countryside, Illinois
Current Conditions -  °F | °C
As of 9:53 AM on Saturday 25 Oct 2014 (Local Time) from KMDW Reporting Station
Few Clouds Few Clouds  
Wind Chill: 64°   Ceiling: Unl
Heat Index: 64°   Visibility: 10mi
Dew Point: 54°   Wind: 15mph
Humidity: 70%   Direction: 280°W
Pressure: 29.93"   Gusts: NA
Location:  41.7814°N, 87.8717°W
Report Text: KMDW 251453Z 28013KT 10SM FEW250 18/12 A2993 RMK AO2 SLP132 T01780122 51007
Loading
Personal Weather Stations






























Interactive Weather Map
Tropical Storm Tracking
New forecast layout! Learn more

10-Day Weather Forecast

Advertisements
Track Severe Weather on mobile